createdAt,value
2023-04-26T00:02:28.092Z,98547.00
2023-04-26T00:04:57.986Z,98551.80
2023-04-26T00:07:26.838Z,98549.40
2023-04-26T00:09:54.910Z,98548.00
2023-04-26T00:12:22.741Z,98554.00
2023-04-26T00:14:50.658Z,98557.80
2023-04-26T00:17:18.512Z,98554.80
2023-04-26T00:19:47.101Z,98548.60
2023-04-26T00:22:15.436Z,98552.40
2023-04-26T00:24:43.443Z,98557.40
2023-04-26T00:27:11.389Z,98555.60
2023-04-26T00:29:39.337Z,98555.80
2023-04-26T00:32:07.213Z,98557.60
2023-04-26T00:34:38.630Z,98557.60
2023-04-26T00:37:06.681Z,98562.00
2023-04-26T00:39:34.511Z,98567.00
2023-04-26T00:42:02.469Z,98566.80
2023-04-26T00:44:30.182Z,98573.60
2023-04-26T00:46:58.748Z,98566.00
2023-04-26T00:49:26.575Z,98576.00
2023-04-26T00:51:54.709Z,98581.40
2023-04-26T00:54:22.737Z,98578.20
2023-04-26T00:56:53.171Z,98580.20
2023-04-26T00:59:21.222Z,98583.20
2023-04-26T01:01:49.554Z,98585.20
2023-04-26T01:04:18.184Z,98586.20
2023-04-26T01:06:46.662Z,98587.80
2023-04-26T01:09:16.181Z,98588.20
2023-04-26T01:11:44.549Z,98592.80
2023-04-26T01:14:12.891Z,98592.80
2023-04-26T01:16:41.067Z,98597.00
2023-04-26T01:19:13.524Z,98603.40
2023-04-26T01:21:41.712Z,98595.60
2023-04-26T01:24:11.117Z,98597.80
2023-04-26T01:26:45.984Z,98598.60
2023-04-26T01:29:16.069Z,98596.80
2023-04-26T01:31:44.242Z,98595.60
2023-04-26T01:34:12.509Z,98597.00
2023-04-26T01:36:40.698Z,98599.80
2023-04-26T01:39:09.451Z,98602.00
2023-04-26T01:41:37.444Z,98599.00
2023-04-26T01:44:05.515Z,98602.00
2023-04-26T01:46:33.437Z,98598.40
2023-04-26T01:49:01.416Z,98599.80
2023-04-26T01:51:30.922Z,98599.00
2023-04-26T01:53:58.896Z,98603.60
2023-04-26T01:56:27.048Z,98601.40
2023-04-26T01:58:57.012Z,98603.80
2023-04-26T02:01:25.012Z,98609.60
2023-04-26T02:03:53.037Z,98609.00
2023-04-26T02:06:21.899Z,98610.40
2023-04-26T02:08:49.945Z,98614.80
2023-04-26T02:11:18.169Z,98614.80
2023-04-26T02:13:46.083Z,98614.60
2023-04-26T02:16:16.258Z,98610.80
2023-04-26T02:18:44.739Z,98621.20
2023-04-26T02:21:12.857Z,98618.00
2023-04-26T02:23:40.670Z,98612.60
2023-04-26T02:26:11.742Z,98610.00
2023-04-26T02:28:39.749Z,98610.40
2023-04-26T02:31:07.920Z,98605.80
2023-04-26T02:33:36.303Z,98609.20
2023-04-26T02:36:06.294Z,98610.00
2023-04-26T02:38:35.845Z,98613.20
2023-04-26T02:41:04.749Z,98613.40
2023-04-26T02:43:33.081Z,98607.60
2023-04-26T02:46:01.667Z,98612.60
2023-04-26T02:48:30.306Z,98608.40
2023-04-26T02:50:58.234Z,98613.80
2023-04-26T02:53:26.185Z,98613.40
2023-04-26T02:55:54.075Z,98617.60
2023-04-26T02:58:22.235Z,98625.20
2023-04-26T03:00:50.096Z,98623.80
2023-04-26T03:03:18.319Z,98620.80
2023-04-26T03:05:46.879Z,98621.00
2023-04-26T03:08:14.692Z,98615.20
2023-04-26T03:10:46.015Z,98625.40
2023-04-26T03:13:14.220Z,98620.40
2023-04-26T03:15:46.503Z,98618.20
2023-04-26T03:18:14.335Z,98619.20
2023-04-26T03:20:43.752Z,98627.00
2023-04-26T03:23:11.970Z,98628.00
2023-04-26T03:25:40.002Z,98629.00
2023-04-26T03:28:08.167Z,98634.60
2023-04-26T03:30:36.994Z,98626.40
2023-04-26T03:33:06.063Z,98630.00
2023-04-26T03:35:34.056Z,98629.40
2023-04-26T03:38:02.531Z,98633.20
2023-04-26T03:40:30.511Z,98639.60
2023-04-26T03:42:58.750Z,98646.80
2023-04-26T03:45:27.012Z,98644.80
2023-04-26T03:47:55.071Z,98650.00
2023-04-26T03:50:23.570Z,98654.00
2023-04-26T03:52:51.702Z,98656.80
2023-04-26T03:55:19.908Z,98648.20
2023-04-26T03:57:49.575Z,98652.00
2023-04-26T04:00:17.616Z,98662.40
2023-04-26T04:02:45.837Z,98654.60
2023-04-26T04:05:16.961Z,98656.00
2023-04-26T04:07:45.136Z,98658.00
2023-04-26T04:10:13.022Z,98663.00
2023-04-26T04:12:41.585Z,98665.60
2023-04-26T04:15:10.560Z,98666.20
2023-04-26T04:17:41.596Z,98663.60
2023-04-26T04:20:11.062Z,98663.20
2023-04-26T04:22:42.249Z,98665.00
2023-04-26T04:25:10.586Z,98669.20
2023-04-26T04:27:39.265Z,98670.80
2023-04-26T04:30:09.094Z,98672.20
2023-04-26T04:32:37.281Z,98674.00
2023-04-26T04:35:07.444Z,98677.60
2023-04-26T04:37:35.632Z,98676.80
2023-04-26T04:40:05.127Z,98675.20
2023-04-26T04:42:36.242Z,98674.60
2023-04-26T04:45:08.348Z,98674.00
2023-04-26T04:47:39.868Z,98676.40
2023-04-26T04:50:08.405Z,98677.00
2023-04-26T04:52:37.282Z,98679.60
2023-04-26T04:55:06.269Z,98677.80
2023-04-26T04:57:36.211Z,98675.40
2023-04-26T05:00:10.388Z,98668.40
2023-04-26T05:02:44.401Z,98671.60
2023-04-26T05:05:12.797Z,98681.40
2023-04-26T05:07:41.014Z,98685.40
2023-04-26T05:10:10.090Z,98687.60
2023-04-26T05:12:38.263Z,98693.60
2023-04-26T05:15:07.965Z,98691.80
2023-04-26T05:17:35.886Z,98691.60
2023-04-26T05:20:14.900Z,98691.00
2023-04-26T05:22:43.316Z,98695.40
2023-04-26T05:25:11.486Z,98699.00
2023-04-26T05:27:39.955Z,98700.60
2023-04-26T05:30:21.182Z,98702.00
2023-04-26T05:33:15.161Z,98710.80
2023-04-26T05:35:52.818Z,98700.40
2023-04-26T05:38:21.996Z,98707.40
2023-04-26T05:40:49.920Z,98709.40
2023-04-26T05:43:17.638Z,98713.60
2023-04-26T05:45:56.372Z,98715.20
2023-04-26T05:48:25.638Z,98710.80
2023-04-26T05:50:54.070Z,98711.60
2023-04-26T05:53:21.993Z,98710.80
2023-04-26T05:55:50.276Z,98713.60
2023-04-26T05:58:18.160Z,98717.00
2023-04-26T06:00:47.895Z,98712.20
2023-04-26T06:03:16.471Z,98718.40
2023-04-26T06:05:44.546Z,98719.00
2023-04-26T06:08:12.773Z,98717.00
2023-04-26T06:10:40.823Z,98714.60
2023-04-26T06:13:08.655Z,98717.60
2023-04-26T06:15:37.909Z,98716.40
2023-04-26T06:18:07.248Z,98720.00
2023-04-26T06:20:36.274Z,98721.40
2023-04-26T06:23:07.588Z,98715.00
2023-04-26T06:25:37.173Z,98713.20
2023-04-26T06:28:05.557Z,98709.40
2023-04-26T06:30:33.333Z,98719.20
2023-04-26T06:33:01.582Z,98710.40
2023-04-26T06:35:31.760Z,98711.60
2023-04-26T06:37:59.932Z,98715.60
2023-04-26T06:40:28.151Z,98717.00
2023-04-26T06:42:57.368Z,98726.60
2023-04-26T06:45:25.565Z,98724.80
2023-04-26T06:47:53.685Z,98718.40
2023-04-26T06:50:24.709Z,98721.00
2023-04-26T06:52:52.493Z,98715.60
2023-04-26T06:55:20.537Z,98722.80
2023-04-26T06:57:50.097Z,98723.40
2023-04-26T07:00:18.436Z,98722.00
2023-04-26T07:02:46.428Z,98728.60
2023-04-26T07:05:15.703Z,98725.80
2023-04-26T07:07:43.643Z,98728.20
2023-04-26T07:10:11.978Z,98726.80
2023-04-26T07:12:39.846Z,98725.00
2023-04-26T07:15:09.356Z,98726.00
2023-04-26T07:17:37.251Z,98729.60
2023-04-26T07:20:06.269Z,98728.80
2023-04-26T07:22:34.091Z,98731.00
2023-04-26T07:25:02.055Z,98726.20
2023-04-26T07:27:30.805Z,98725.60
2023-04-26T07:29:58.868Z,98730.00
2023-04-26T07:32:27.100Z,98732.20
2023-04-26T07:34:55.131Z,98730.60
2023-04-26T07:37:23.333Z,98728.80
2023-04-26T07:39:51.196Z,98735.00
2023-04-26T07:42:19.115Z,98741.00
2023-04-26T07:44:49.648Z,98746.60
2023-04-26T07:47:17.557Z,98741.80
2023-04-26T07:49:47.538Z,98742.60
2023-04-26T07:52:15.753Z,98740.40
2023-04-26T07:54:46.539Z,98747.20
2023-04-26T07:57:14.348Z,98750.80
2023-04-26T07:59:42.250Z,98748.60
2023-04-26T08:02:10.505Z,98758.60
2023-04-26T08:04:38.499Z,98766.80
2023-04-26T08:07:06.478Z,98766.40
2023-04-26T08:12:57.505Z,98771.60
2023-04-26T08:15:25.430Z,98769.00
2023-04-26T08:17:53.607Z,98769.00
2023-04-26T08:20:21.696Z,98765.20
2023-04-26T08:22:49.421Z,98761.80
2023-04-26T08:25:17.400Z,98770.60
2023-04-26T08:27:45.218Z,98762.00
2023-04-26T08:30:13.545Z,98767.80
2023-04-26T08:32:41.498Z,98774.20
2023-04-26T08:35:10.379Z,98779.00
2023-04-26T08:37:38.577Z,98782.40
2023-04-26T08:40:10.383Z,98778.80
2023-04-26T08:42:43.986Z,98781.80
2023-04-26T08:45:11.858Z,98784.60
2023-04-26T08:47:58.655Z,98775.80
2023-04-26T08:50:28.267Z,98784.60
2023-04-26T08:52:56.445Z,98781.80
2023-04-26T08:55:24.155Z,98786.00
2023-04-26T08:57:52.246Z,98779.80
2023-04-26T09:00:20.490Z,98788.80
2023-04-26T09:02:53.379Z,98776.40
2023-04-26T09:05:24.551Z,98791.60
2023-04-26T09:08:02.355Z,98790.60
2023-04-26T09:10:30.430Z,98781.00
2023-04-26T09:12:58.387Z,98788.80
2023-04-26T09:15:27.828Z,98791.40
2023-04-26T09:17:55.749Z,98792.20
2023-04-26T09:20:29.320Z,98784.40
2023-04-26T09:23:08.469Z,98796.20
2023-04-26T09:25:37.079Z,98791.60
2023-04-26T09:28:18.697Z,98799.20
2023-04-26T09:30:46.489Z,98796.20
2023-04-26T09:33:14.882Z,98796.20
2023-04-26T09:35:43.665Z,98794.80
2023-04-26T09:38:14.224Z,98805.40
2023-04-26T09:40:47.283Z,98802.40
2023-04-26T09:43:22.335Z,98801.60
2023-04-26T09:45:58.359Z,98796.80
2023-04-26T09:48:31.081Z,98799.80
2023-04-26T09:51:11.258Z,98795.60
2023-04-26T09:53:41.261Z,98797.20
2023-04-26T09:56:10.760Z,98794.80
2023-04-26T09:58:41.163Z,98792.00
2023-04-26T10:01:09.485Z,98793.40
2023-04-26T10:03:38.359Z,98797.00
2023-04-26T10:06:06.970Z,98791.80
2023-04-26T10:08:35.298Z,98800.20
2023-04-26T10:11:13.165Z,98790.80
2023-04-26T10:13:41.867Z,98808.40
2023-04-26T10:16:10.479Z,98789.60
2023-04-26T10:18:38.564Z,98797.40
2023-04-26T10:21:12.955Z,98795.00
2023-04-26T10:23:40.989Z,98799.20
2023-04-26T10:26:52.150Z,98791.20
2023-04-26T10:29:21.041Z,98811.20
2023-04-26T10:32:09.565Z,98797.80
2023-04-26T10:34:37.656Z,98796.80
2023-04-26T10:37:15.256Z,98800.80
2023-04-26T10:39:46.721Z,98797.40
2023-04-26T10:42:28.183Z,98802.80
2023-04-26T10:44:59.998Z,98810.80
2023-04-26T10:47:31.940Z,98816.60
2023-04-26T10:50:11.389Z,98819.20
2023-04-26T10:53:04.003Z,98809.00
2023-04-26T10:55:42.444Z,98812.00
2023-04-26T10:58:43.196Z,98803.60
2023-04-26T11:01:23.504Z,98807.20
2023-04-26T11:03:58.755Z,98806.20
2023-04-26T11:06:27.458Z,98810.20
2023-04-26T11:08:55.557Z,98819.40
2023-04-26T11:11:26.494Z,98820.80
2023-04-26T11:13:54.424Z,98827.00
2023-04-26T11:16:26.904Z,98827.40
2023-04-26T11:18:55.302Z,98820.60
2023-04-26T11:21:23.258Z,98821.00
2023-04-26T11:23:54.836Z,98818.40
2023-04-26T11:26:22.933Z,98826.20
2023-04-26T11:28:51.054Z,98828.80
2023-04-26T11:31:19.434Z,98829.60
2023-04-26T11:33:49.190Z,98827.80
2023-04-26T11:36:19.831Z,98831.80
2023-04-26T11:38:47.809Z,98833.40
2023-04-26T11:41:15.738Z,98829.80
2023-04-26T11:43:43.593Z,98832.00
2023-04-26T11:46:11.567Z,98838.00
2023-04-26T11:48:39.636Z,98838.20
2023-04-26T11:51:08.671Z,98832.20
2023-04-26T11:53:43.469Z,98834.80
2023-04-26T11:56:19.144Z,98829.80
2023-04-26T11:58:52.181Z,98834.60
2023-04-26T12:01:28.480Z,98832.40
2023-04-26T12:03:58.448Z,98837.40
2023-04-26T12:06:42.734Z,98844.60
2023-04-26T12:09:14.065Z,98840.80
2023-04-26T12:11:41.794Z,98835.20
2023-04-26T12:14:10.211Z,98831.80
2023-04-26T12:16:38.428Z,98839.20
2023-04-26T12:19:09.707Z,98840.00
2023-04-26T12:21:42.605Z,98841.20
2023-04-26T12:24:23.159Z,98848.00
2023-04-26T12:26:51.099Z,98854.40
2023-04-26T12:29:19.011Z,98859.20
2023-04-26T12:31:47.224Z,98857.20
2023-04-26T12:34:15.060Z,98853.80
2023-04-26T12:36:45.870Z,98850.80
2023-04-26T12:39:15.632Z,98861.80
2023-04-26T12:41:44.455Z,98865.20
2023-04-26T12:44:14.591Z,98863.40
2023-04-26T12:46:42.674Z,98863.60
2023-04-26T12:49:10.613Z,98865.80
2023-04-26T12:51:38.851Z,98873.00
2023-04-26T12:54:06.995Z,98869.80
2023-04-26T12:56:35.361Z,98868.20
2023-04-26T12:59:03.268Z,98867.80
2023-04-26T13:01:31.930Z,98874.60
2023-04-26T13:04:01.007Z,98874.40
2023-04-26T13:06:29.461Z,98867.40
2023-04-26T13:08:57.286Z,98867.80
2023-04-26T13:11:25.131Z,98869.40
2023-04-26T13:13:52.848Z,98876.00
2023-04-26T13:16:20.908Z,98869.80
2023-04-26T13:18:48.740Z,98869.60
2023-04-26T13:21:16.807Z,98868.20
2023-04-26T13:23:46.349Z,98876.60
2023-04-26T13:26:17.177Z,98880.80
2023-04-26T13:28:45.039Z,98881.40
2023-04-26T13:31:12.816Z,98893.80
2023-04-26T13:33:40.703Z,98890.00
2023-04-26T13:36:08.780Z,98892.20
2023-04-26T13:38:37.117Z,98896.80
2023-04-26T13:44:31.363Z,98912.20
2023-04-26T13:47:00.799Z,98907.80
2023-04-26T13:49:28.685Z,98913.60
2023-04-26T13:51:56.588Z,98914.20
2023-04-26T13:54:28.088Z,98917.00
2023-04-26T13:56:55.951Z,98915.60
2023-04-26T13:59:23.765Z,98919.60
2023-04-26T14:01:54.261Z,98921.00
2023-04-26T14:04:23.252Z,98923.20
2023-04-26T14:06:51.501Z,98922.80
2023-04-26T14:09:19.428Z,98918.60
2023-04-26T14:11:51.451Z,98920.00
2023-04-26T14:14:25.987Z,98924.00
2023-04-26T14:16:53.808Z,98924.80
2023-04-26T14:19:22.315Z,98930.20
2023-04-26T14:21:50.212Z,98925.00
2023-04-26T14:24:18.152Z,98926.40
2023-04-26T14:26:46.050Z,98926.20
2023-04-26T14:29:13.911Z,98930.40
2023-04-26T14:31:42.170Z,98941.20
2023-04-26T14:34:10.425Z,98944.60
2023-04-26T14:36:38.216Z,98946.60
2023-04-26T14:39:06.040Z,98944.20
2023-04-26T14:41:33.926Z,98944.80
2023-04-26T14:44:01.810Z,98946.40
2023-04-26T14:46:29.634Z,98946.00
2023-04-26T14:48:57.529Z,98950.80
2023-04-26T14:51:26.454Z,98952.20
2023-04-26T14:53:54.490Z,98950.20
2023-04-26T14:56:23.872Z,98953.40
2023-04-26T14:58:51.677Z,98954.60
2023-04-26T15:01:19.443Z,98957.00
2023-04-26T15:03:47.572Z,98964.00
2023-04-26T15:06:15.570Z,98961.60
2023-04-26T15:08:43.333Z,98962.80
2023-04-26T15:11:11.391Z,98967.60
2023-04-26T15:13:39.193Z,98967.20
2023-04-26T15:16:08.217Z,98968.80
2023-04-26T15:18:36.342Z,98971.60
2023-04-26T15:21:04.257Z,98966.00
2023-04-26T15:23:33.088Z,98970.80
2023-04-26T15:26:04.489Z,98968.80
2023-04-26T15:28:33.056Z,98974.00
2023-04-26T15:31:09.676Z,98967.60
2023-04-26T15:33:37.797Z,98969.40
2023-04-26T15:36:06.915Z,98967.80
2023-04-26T15:38:35.188Z,98970.20
2023-04-26T15:41:03.119Z,98971.20
2023-04-26T15:43:31.972Z,98968.60
2023-04-26T15:45:59.842Z,98972.80
2023-04-26T15:48:28.040Z,98976.60
2023-04-26T15:50:56.929Z,98977.60
2023-04-26T15:53:25.172Z,98974.60
2023-04-26T15:55:54.176Z,98976.40
2023-04-26T15:58:22.071Z,98977.00
2023-04-26T16:00:49.893Z,98981.00
2023-04-26T16:03:18.214Z,98983.00
2023-04-26T16:05:46.382Z,98990.00
2023-04-26T16:08:17.647Z,98992.00
2023-04-26T16:10:52.535Z,98998.20
2023-04-26T16:13:20.580Z,98992.80
2023-04-26T16:15:48.920Z,98991.40
2023-04-26T16:18:17.375Z,98993.80
2023-04-26T16:20:45.216Z,98995.80
2023-04-26T16:23:13.166Z,99000.00
2023-04-26T16:25:41.861Z,98998.00
2023-04-26T16:28:11.766Z,99000.40
2023-04-26T16:30:39.998Z,99000.40
2023-04-26T16:33:10.234Z,99001.80
2023-04-26T16:35:38.169Z,99006.40
2023-04-26T16:38:05.957Z,99010.40
2023-04-26T16:40:33.688Z,99010.00
2023-04-26T16:43:01.548Z,99016.60
2023-04-26T16:45:29.336Z,99012.60
2023-04-26T16:47:57.229Z,99009.00
2023-04-26T16:50:25.278Z,99014.00
2023-04-26T16:52:53.353Z,99018.60
2023-04-26T16:55:21.604Z,99017.00
2023-04-26T16:57:49.582Z,99009.20
2023-04-26T17:00:18.283Z,99013.80
2023-04-26T17:02:46.373Z,99014.20
2023-04-26T17:05:14.656Z,99020.40
2023-04-26T17:07:42.524Z,99019.40
2023-04-26T17:10:10.544Z,99022.00
2023-04-26T17:12:38.508Z,99025.80
2023-04-26T17:15:08.647Z,99027.40
2023-04-26T17:17:37.427Z,99033.20
2023-04-26T17:20:07.795Z,99032.20
2023-04-26T17:22:36.865Z,99037.00
2023-04-26T17:25:05.634Z,99040.40
2023-04-26T17:27:33.488Z,99041.40
2023-04-26T17:30:01.567Z,99043.60
2023-04-26T17:32:29.608Z,99048.40
2023-04-26T17:34:57.614Z,99044.60
2023-04-26T17:37:25.972Z,99048.80
2023-04-26T17:39:54.542Z,99044.80
2023-04-26T17:42:22.334Z,99047.60
2023-04-26T17:44:50.144Z,99048.60
2023-04-26T17:47:17.885Z,99050.40
2023-04-26T17:49:45.820Z,99053.00
2023-04-26T17:52:13.608Z,99062.20
2023-04-26T17:54:41.403Z,99059.80
2023-04-26T17:57:09.265Z,99067.00
2023-04-26T17:59:37.392Z,99067.40
2023-04-26T18:02:05.127Z,99069.80
2023-04-26T18:04:33.473Z,99075.00
2023-04-26T18:07:02.001Z,99074.40
2023-04-26T18:09:30.619Z,99079.20
2023-04-26T18:11:58.330Z,99081.80
2023-04-26T18:14:26.755Z,99090.80
2023-04-26T18:16:54.636Z,99085.80
2023-04-26T18:19:22.486Z,99089.00
2023-04-26T18:21:52.390Z,99094.20
2023-04-26T18:24:20.328Z,99098.00
2023-04-26T18:26:48.492Z,99101.20
2023-04-26T18:29:16.212Z,99106.60
2023-04-26T18:31:44.201Z,99106.40
2023-04-26T18:34:12.333Z,99110.20
2023-04-26T18:36:40.262Z,99101.00
2023-04-26T18:39:08.426Z,99109.00
2023-04-26T18:41:36.302Z,99113.00
2023-04-26T18:44:10.642Z,99112.60
2023-04-26T18:46:42.751Z,99119.40
2023-04-26T18:49:11.297Z,99118.00
2023-04-26T18:51:39.326Z,99117.80
2023-04-26T18:54:07.047Z,99118.80
2023-04-26T18:56:34.908Z,99118.60
2023-04-26T18:59:02.645Z,99125.60
2023-04-26T19:01:30.471Z,99134.60
2023-04-26T19:03:58.551Z,99130.80
2023-04-26T19:06:26.534Z,99134.00
2023-04-26T19:08:54.387Z,99137.80
2023-04-26T19:11:22.220Z,99138.80
2023-04-26T19:13:50.083Z,99141.80
2023-04-26T19:16:17.920Z,99140.40
2023-04-26T19:18:47.331Z,99146.20
2023-04-26T19:21:15.105Z,99141.40
2023-04-26T19:23:44.751Z,99140.20
2023-04-26T19:26:13.934Z,99142.60
2023-04-26T19:28:42.462Z,99141.80
2023-04-26T19:31:10.299Z,99147.80
2023-04-26T19:33:38.289Z,99146.60
2023-04-26T19:36:06.389Z,99148.80
2023-04-26T19:38:34.256Z,99155.40
2023-04-26T19:41:02.376Z,99151.20
2023-04-26T19:43:30.104Z,99146.40
2023-04-26T19:45:58.016Z,99145.40
2023-04-26T19:48:26.554Z,99155.60
2023-04-26T19:50:54.438Z,99150.60
2023-04-26T19:53:22.387Z,99151.20
2023-04-26T19:55:50.880Z,99154.00
2023-04-26T19:58:19.244Z,99148.60
2023-04-26T20:00:47.637Z,99152.60
2023-04-26T20:03:15.645Z,99151.60
2023-04-26T20:05:43.701Z,99158.80
2023-04-26T20:08:11.494Z,99162.60
2023-04-26T20:10:39.228Z,99156.60
2023-04-26T20:13:07.218Z,99159.60
2023-04-26T20:15:35.372Z,99164.00
2023-04-26T20:18:03.582Z,99162.60
2023-04-26T20:20:31.582Z,99164.20
2023-04-26T20:22:59.433Z,99161.60
2023-04-26T20:25:27.302Z,99162.60
2023-04-26T20:27:56.789Z,99163.60
2023-04-26T20:30:24.720Z,99169.60
2023-04-26T20:32:52.655Z,99169.80
2023-04-26T20:35:20.508Z,99166.40
2023-04-26T20:37:48.218Z,99168.60
2023-04-26T20:40:16.370Z,99167.80
2023-04-26T20:42:44.083Z,99171.80
2023-04-26T20:45:12.464Z,99173.40
2023-04-26T20:47:40.409Z,99168.40
2023-04-26T20:50:09.336Z,99174.00
2023-04-26T20:52:37.168Z,99176.80
2023-04-26T20:55:06.421Z,99174.80
2023-04-26T20:57:34.280Z,99177.40
2023-04-26T21:00:03.071Z,99171.20
2023-04-26T21:02:31.065Z,99175.40
2023-04-26T21:04:58.996Z,99180.00
2023-04-26T21:07:26.851Z,99182.80
2023-04-26T21:09:54.719Z,99182.80
2023-04-26T21:12:22.810Z,99188.60
2023-04-26T21:14:50.979Z,99191.00
2023-04-26T21:17:19.134Z,99189.80
2023-04-26T21:19:47.570Z,99189.00
2023-04-26T21:22:16.018Z,99198.00
2023-04-26T21:24:43.900Z,99200.00
2023-04-26T21:27:11.944Z,99201.00
2023-04-26T21:29:39.785Z,99203.00
2023-04-26T21:32:07.929Z,99201.80
2023-04-26T21:34:36.634Z,99205.00
2023-04-26T21:37:04.600Z,99210.00
2023-04-26T21:39:32.542Z,99210.20
2023-04-26T21:42:00.484Z,99214.00
2023-04-26T21:44:28.448Z,99213.20
2023-04-26T21:46:56.625Z,99214.80
2023-04-26T21:49:24.599Z,99209.60
2023-04-26T21:51:52.652Z,99213.40
2023-04-26T21:54:20.510Z,99212.60
2023-04-26T21:56:48.393Z,99218.40
2023-04-26T21:59:16.377Z,99219.60
2023-04-26T22:01:44.561Z,99226.00
2023-04-26T22:04:12.923Z,99228.80
2023-04-26T22:06:41.400Z,99225.00
2023-04-26T22:09:10.314Z,99231.80
2023-04-26T22:11:38.583Z,99231.20
2023-04-26T22:14:06.630Z,99231.60
2023-04-26T22:16:34.554Z,99229.60
2023-04-26T22:19:02.669Z,99226.60
2023-04-26T22:21:30.732Z,99230.60
2023-04-26T22:23:58.565Z,99236.20
2023-04-26T22:26:26.889Z,99239.00
2023-04-26T22:28:54.902Z,99241.00
2023-04-26T22:31:23.093Z,99236.20
2023-04-26T22:33:51.102Z,99241.80
2023-04-26T22:36:19.045Z,99243.60
2023-04-26T22:38:47.029Z,99236.80
2023-04-26T22:41:14.875Z,99242.40
2023-04-26T22:43:45.320Z,99238.80
2023-04-26T22:46:13.312Z,99239.20
2023-04-26T22:48:41.241Z,99243.60
2023-04-26T22:51:09.272Z,99247.40
2023-04-26T22:53:37.114Z,99250.60
2023-04-26T22:56:05.491Z,99245.40
2023-04-26T22:58:33.436Z,99251.20
2023-04-26T23:01:01.342Z,99255.40
2023-04-26T23:03:29.626Z,99255.40
2023-04-26T23:05:57.914Z,99257.40
2023-04-26T23:08:25.782Z,99257.80
2023-04-26T23:10:53.820Z,99257.40
2023-04-26T23:13:22.104Z,99260.00
2023-04-26T23:15:50.042Z,99261.00
2023-04-26T23:18:18.681Z,99259.60
2023-04-26T23:20:46.614Z,99268.40
2023-04-26T23:23:14.568Z,99266.20
2023-04-26T23:25:42.494Z,99270.60
2023-04-26T23:28:10.632Z,99268.40
2023-04-26T23:30:38.563Z,99269.40
2023-04-26T23:33:06.826Z,99262.80
2023-04-26T23:35:34.927Z,99266.60
2023-04-26T23:38:02.853Z,99266.60
2023-04-26T23:40:30.766Z,99262.60
2023-04-26T23:42:58.693Z,99263.40
2023-04-26T23:45:26.579Z,99268.00
2023-04-26T23:47:54.508Z,99270.80
2023-04-26T23:50:22.337Z,99271.00
2023-04-26T23:52:50.205Z,99273.20
2023-04-26T23:55:18.722Z,99271.60
2023-04-26T23:57:46.615Z,99276.80
